sensor_id;sensor_type;location;lat;lon;timestamp;pressure;altitude;pressure_sealevel;temperature;humidity
66479;BME280;53294;47.912;13.526;2022-10-16T00:01:27;96236.47;;;16.17;64.77
66479;BME280;53294;47.912;13.526;2022-10-16T00:03:56;96240.44;;;16.19;64.63
66479;BME280;53294;47.912;13.526;2022-10-16T00:06:24;96248.09;;;16.17;64.74
66479;BME280;53294;47.912;13.526;2022-10-16T00:08:51;96254.16;;;16.14;64.79
66479;BME280;53294;47.912;13.526;2022-10-16T00:11:23;96249.41;;;16.11;64.90
66479;BME280;53294;47.912;13.526;2022-10-16T00:13:54;96253.44;;;16.05;64.64
66479;BME280;53294;47.912;13.526;2022-10-16T00:16:20;96255.88;;;15.97;65.34
66479;BME280;53294;47.912;13.526;2022-10-16T00:18:47;96249.06;;;15.91;65.23
66479;BME280;53294;47.912;13.526;2022-10-16T00:21:17;96252.78;;;15.78;66.02
66479;BME280;53294;47.912;13.526;2022-10-16T00:23:45;96257.47;;;15.60;66.65
66479;BME280;53294;47.912;13.526;2022-10-16T00:26:15;96255.84;;;15.68;66.65
66479;BME280;53294;47.912;13.526;2022-10-16T00:28:45;96260.03;;;15.56;66.87
66479;BME280;53294;47.912;13.526;2022-10-16T00:31:12;96261.44;;;15.62;66.27
66479;BME280;53294;47.912;13.526;2022-10-16T00:33:40;96257.81;;;15.58;66.60
66479;BME280;53294;47.912;13.526;2022-10-16T00:36:10;96261.16;;;15.55;66.50
66479;BME280;53294;47.912;13.526;2022-10-16T00:38:37;96268.53;;;15.46;67.35
66479;BME280;53294;47.912;13.526;2022-10-16T00:41:07;96259.88;;;15.61;66.19
66479;BME280;53294;47.912;13.526;2022-10-16T00:43:59;96262.06;;;15.68;65.94
66479;BME280;53294;47.912;13.526;2022-10-16T00:46:31;96267.00;;;15.66;65.75
66479;BME280;53294;47.912;13.526;2022-10-16T00:49:09;96258.91;;;15.57;66.05
66479;BME280;53294;47.912;13.526;2022-10-16T00:51:40;96265.25;;;15.23;67.12
66479;BME280;53294;47.912;13.526;2022-10-16T00:54:14;96268.22;;;15.39;66.60
66479;BME280;53294;47.912;13.526;2022-10-16T00:56:42;96262.16;;;15.42;66.48
66479;BME280;53294;47.912;13.526;2022-10-16T00:59:37;96263.13;;;15.46;66.86
66479;BME280;53294;47.912;13.526;2022-10-16T01:02:07;96264.56;;;15.43;66.15
66479;BME280;53294;47.912;13.526;2022-10-16T01:04:41;96263.47;;;15.36;66.80
66479;BME280;53294;47.912;13.526;2022-10-16T01:14:52;96266.38;;;15.13;67.55
66479;BME280;53294;47.912;13.526;2022-10-16T01:17:35;96267.34;;;15.17;67.67
66479;BME280;53294;47.912;13.526;2022-10-16T01:20:30;96270.03;;;15.26;67.17
66479;BME280;53294;47.912;13.526;2022-10-16T01:25:58;96270.47;;;15.37;66.72
66479;BME280;53294;47.912;13.526;2022-10-16T01:28:34;96273.97;;;15.29;66.95
66479;BME280;53294;47.912;13.526;2022-10-16T01:31:03;96271.75;;;15.31;66.61
66479;BME280;53294;47.912;13.526;2022-10-16T01:33:42;96272.22;;;15.41;66.24
66479;BME280;53294;47.912;13.526;2022-10-16T01:36:13;96277.63;;;15.33;66.45
66479;BME280;53294;47.912;13.526;2022-10-16T01:38:44;96286.53;;;15.33;66.42
66479;BME280;53294;47.912;13.526;2022-10-16T01:41:24;96284.81;;;15.29;66.43
66479;BME280;53294;47.912;13.526;2022-10-16T01:44:03;96282.28;;;15.23;66.37
66479;BME280;53294;47.912;13.526;2022-10-16T01:46:31;96285.34;;;15.04;66.93
66479;BME280;53294;47.912;13.526;2022-10-16T01:49:01;96277.56;;;15.03;66.86
66479;BME280;53294;47.912;13.526;2022-10-16T01:51:29;96283.28;;;15.01;66.75
66479;BME280;53294;47.912;13.526;2022-10-16T01:53:58;96277.56;;;15.03;66.69
66479;BME280;53294;47.912;13.526;2022-10-16T01:56:28;96285.63;;;15.12;65.83
66479;BME280;53294;47.912;13.526;2022-10-16T01:59:00;96285.97;;;15.10;66.10
66479;BME280;53294;47.912;13.526;2022-10-16T02:01:30;96287.56;;;15.11;65.73
66479;BME280;53294;47.912;13.526;2022-10-16T02:04:01;96282.59;;;15.13;65.61
66479;BME280;53294;47.912;13.526;2022-10-16T02:06:28;96279.44;;;15.11;65.59
66479;BME280;53294;47.912;13.526;2022-10-16T02:08:55;96278.34;;;15.03;65.65
66479;BME280;53294;47.912;13.526;2022-10-16T02:11:22;96282.00;;;14.99;66.11
66479;BME280;53294;47.912;13.526;2022-10-16T02:13:54;96279.16;;;14.95;66.25
66479;BME280;53294;47.912;13.526;2022-10-16T02:16:33;96274.69;;;15.08;65.65
66479;BME280;53294;47.912;13.526;2022-10-16T02:19:00;96279.50;;;14.94;66.09
66479;BME280;53294;47.912;13.526;2022-10-16T02:21:30;96284.91;;;14.76;67.01
66479;BME280;53294;47.912;13.526;2022-10-16T02:29:28;96284.78;;;14.64;67.02
66479;BME280;53294;47.912;13.526;2022-10-16T02:31:59;96288.72;;;14.58;67.58
66479;BME280;53294;47.912;13.526;2022-10-16T02:34:28;96280.59;;;14.49;67.88
66479;BME280;53294;47.912;13.526;2022-10-16T02:36:58;96284.28;;;14.62;67.29
66479;BME280;53294;47.912;13.526;2022-10-16T02:39:28;96295.09;;;14.62;66.64
66479;BME280;53294;47.912;13.526;2022-10-16T02:41:55;96298.72;;;14.48;67.53
66479;BME280;53294;47.912;13.526;2022-10-16T02:44:22;96294.88;;;14.49;67.50
66479;BME280;53294;47.912;13.526;2022-10-16T02:46:48;96299.84;;;14.47;67.64
66479;BME280;53294;47.912;13.526;2022-10-16T02:49:15;96291.72;;;14.56;67.02
66479;BME280;53294;47.912;13.526;2022-10-16T02:51:42;96311.28;;;14.44;67.71
66479;BME280;53294;47.912;13.526;2022-10-16T02:54:08;96306.84;;;14.48;67.46
66479;BME280;53294;47.912;13.526;2022-10-16T02:56:35;96301.72;;;14.55;67.03
66479;BME280;53294;47.912;13.526;2022-10-16T02:59:02;96316.22;;;14.60;66.66
66479;BME280;53294;47.912;13.526;2022-10-16T03:01:28;96310.63;;;14.47;67.43
66479;BME280;53294;47.912;13.526;2022-10-16T03:03:55;96309.03;;;14.29;68.51
66479;BME280;53294;47.912;13.526;2022-10-16T03:06:22;96310.63;;;14.47;67.42
66479;BME280;53294;47.912;13.526;2022-10-16T03:08:49;96322.41;;;14.51;67.19
66479;BME280;53294;47.912;13.526;2022-10-16T03:11:16;96314.47;;;14.55;66.89
66479;BME280;53294;47.912;13.526;2022-10-16T03:13:43;96312.25;;;14.48;67.17
66479;BME280;53294;47.912;13.526;2022-10-16T03:16:09;96312.53;;;14.55;66.83
66479;BME280;53294;47.912;13.526;2022-10-16T03:18:36;96321.78;;;14.54;66.90
66479;BME280;53294;47.912;13.526;2022-10-16T03:21:03;96321.44;;;14.47;67.20
66479;BME280;53294;47.912;13.526;2022-10-16T03:23:30;96325.41;;;14.41;67.59
66479;BME280;53294;47.912;13.526;2022-10-16T03:26:01;96323.97;;;14.35;68.03
66479;BME280;53294;47.912;13.526;2022-10-16T03:28:28;96325.56;;;14.36;68.08
66479;BME280;53294;47.912;13.526;2022-10-16T03:30:54;96329.38;;;14.35;68.10
66479;BME280;53294;47.912;13.526;2022-10-16T03:33:21;96336.19;;;14.32;68.06
66479;BME280;53294;47.912;13.526;2022-10-16T03:35:54;96337.19;;;14.28;68.48
66479;BME280;53294;47.912;13.526;2022-10-16T03:38:21;96336.19;;;14.24;68.52
66479;BME280;53294;47.912;13.526;2022-10-16T03:40:48;96330.78;;;14.24;68.59
66479;BME280;53294;47.912;13.526;2022-10-16T03:43:15;96327.31;;;14.32;68.07
66479;BME280;53294;47.912;13.526;2022-10-16T03:45:42;96329.22;;;14.40;67.54
66479;BME280;53294;47.912;13.526;2022-10-16T03:48:08;96330.50;;;14.43;67.56
66479;BME280;53294;47.912;13.526;2022-10-16T03:50:35;96327.47;;;14.44;67.48
66479;BME280;53294;47.912;13.526;2022-10-16T03:53:02;96334.50;;;14.45;67.18
66479;BME280;53294;47.912;13.526;2022-10-16T03:55:28;96330.00;;;14.32;67.69
66479;BME280;53294;47.912;13.526;2022-10-16T03:57:55;96330.00;;;14.32;67.61
66479;BME280;53294;47.912;13.526;2022-10-16T04:00:22;96334.78;;;14.35;67.35
66479;BME280;53294;47.912;13.526;2022-10-16T04:02:48;96327.47;;;14.27;67.80
66479;BME280;53294;47.912;13.526;2022-10-16T04:05:15;96331.91;;;14.23;67.80
66479;BME280;53294;47.912;13.526;2022-10-16T04:07:41;96338.56;;;14.16;68.06
66479;BME280;53294;47.912;13.526;2022-10-16T04:10:08;96337.91;;;14.02;68.97
66479;BME280;53294;47.912;13.526;2022-10-16T04:12:35;96339.03;;;14.10;68.47
66479;BME280;53294;47.912;13.526;2022-10-16T04:15:02;96340.78;;;14.14;68.07
66479;BME280;53294;47.912;13.526;2022-10-16T04:17:29;96348.69;;;14.02;68.57
66479;BME280;53294;47.912;13.526;2022-10-16T04:19:56;96347.41;;;13.99;68.66
66479;BME280;53294;47.912;13.526;2022-10-16T04:22:22;96353.75;;;13.95;68.62
66479;BME280;53294;47.912;13.526;2022-10-16T04:24:49;96348.06;;;14.05;67.97
66479;BME280;53294;47.912;13.526;2022-10-16T04:27:16;96345.00;;;13.98;68.34
66479;BME280;53294;47.912;13.526;2022-10-16T04:29:42;96351.53;;;13.97;68.31
66479;BME280;53294;47.912;13.526;2022-10-16T04:32:09;96351.56;;;14.06;67.80
66479;BME280;53294;47.912;13.526;2022-10-16T04:34:36;96355.34;;;13.96;68.08
66479;BME280;53294;47.912;13.526;2022-10-16T04:37:04;96353.59;;;13.91;68.45
66479;BME280;53294;47.912;13.526;2022-10-16T04:39:31;96347.19;;;13.87;68.41
66479;BME280;53294;47.912;13.526;2022-10-16T04:41:58;96352.28;;;13.89;68.17
66479;BME280;53294;47.912;13.526;2022-10-16T04:44:24;96353.75;;;13.95;67.93
66479;BME280;53294;47.912;13.526;2022-10-16T04:46:51;96349.94;;;13.96;67.66
66479;BME280;53294;47.912;13.526;2022-10-16T04:49:18;96354.25;;;13.97;67.67
66479;BME280;53294;47.912;13.526;2022-10-16T04:51:44;96350.56;;;13.93;68.06
66479;BME280;53294;47.912;13.526;2022-10-16T04:54:11;96341.22;;;13.99;67.33
66479;BME280;53294;47.912;13.526;2022-10-16T04:56:37;96345.84;;;13.98;67.26
66479;BME280;53294;47.912;13.526;2022-10-16T04:59:13;96350.84;;;13.82;67.95
66479;BME280;53294;47.912;13.526;2022-10-16T05:01:40;96346.69;;;13.76;67.79
66479;BME280;53294;47.912;13.526;2022-10-16T05:04:07;96350.78;;;13.65;68.09
66479;BME280;53294;47.912;13.526;2022-10-16T05:06:34;96353.47;;;13.65;67.87
66479;BME280;53294;47.912;13.526;2022-10-16T05:09:01;96362.16;;;13.53;68.03
66479;BME280;53294;47.912;13.526;2022-10-16T05:11:28;96357.16;;;13.69;67.32
66479;BME280;53294;47.912;13.526;2022-10-16T05:13:54;96359.78;;;13.52;68.14
66479;BME280;53294;47.912;13.526;2022-10-16T05:16:21;96356.97;;;13.34;68.84
66479;BME280;53294;47.912;13.526;2022-10-16T05:18:48;96357.19;;;13.46;68.08
66479;BME280;53294;47.912;13.526;2022-10-16T05:21:21;96361.66;;;13.51;67.76
66479;BME280;53294;47.912;13.526;2022-10-16T05:23:47;96380.56;;;13.28;68.82
66479;BME280;53294;47.912;13.526;2022-10-16T05:26:14;96367.03;;;13.42;67.95
66479;BME280;53294;47.912;13.526;2022-10-16T05:28:41;96372.28;;;13.48;67.79
66479;BME280;53294;47.912;13.526;2022-10-16T05:31:09;96386.53;;;13.39;68.13
66479;BME280;53294;47.912;13.526;2022-10-16T05:33:36;96379.91;;;13.45;67.81
66479;BME280;53294;47.912;13.526;2022-10-16T05:36:07;96386.25;;;13.50;67.75
66479;BME280;53294;47.912;13.526;2022-10-16T05:38:35;96385.53;;;13.35;68.37
66479;BME280;53294;47.912;13.526;2022-10-16T05:41:03;96388.31;;;13.44;68.24
66479;BME280;53294;47.912;13.526;2022-10-16T05:43:31;96389.88;;;13.45;68.15
66479;BME280;53294;47.912;13.526;2022-10-16T05:46:03;96392.31;;;13.33;68.77
66479;BME280;53294;47.912;13.526;2022-10-16T05:48:30;96395.09;;;13.41;68.43
66479;BME280;53294;47.912;13.526;2022-10-16T05:50:59;96390.53;;;13.28;69.28
66479;BME280;53294;47.912;13.526;2022-10-16T05:53:31;96406.19;;;13.40;68.76
66479;BME280;53294;47.912;13.526;2022-10-16T05:55:58;96396.50;;;13.39;68.95
66479;BME280;53294;47.912;13.526;2022-10-16T05:58:29;96397.97;;;13.45;68.77
66479;BME280;53294;47.912;13.526;2022-10-16T06:01:01;96405.88;;;13.41;68.82
66479;BME280;53294;47.912;13.526;2022-10-16T06:03:28;96414.47;;;13.43;68.86
66479;BME280;53294;47.912;13.526;2022-10-16T06:05:55;96418.63;;;13.50;68.61
66479;BME280;53294;47.912;13.526;2022-10-16T06:08:23;96431.63;;;13.48;69.08
66479;BME280;53294;47.912;13.526;2022-10-16T06:11:00;96431.38;;;13.58;68.97
66479;BME280;53294;47.912;13.526;2022-10-16T06:13:27;96435.25;;;13.43;69.71
66479;BME280;53294;47.912;13.526;2022-10-16T06:15:57;96428.66;;;13.58;69.57
66479;BME280;53294;47.912;13.526;2022-10-16T06:18:25;96431.38;;;13.58;69.75
66479;BME280;53294;47.912;13.526;2022-10-16T06:20:53;96446.34;;;13.64;69.68
66479;BME280;53294;47.912;13.526;2022-10-16T06:23:20;96447.47;;;13.63;70.03
66479;BME280;53294;47.912;13.526;2022-10-16T06:25:46;96446.69;;;13.71;69.76
66479;BME280;53294;47.912;13.526;2022-10-16T06:28:14;96450.50;;;13.70;70.32
66479;BME280;53294;47.912;13.526;2022-10-16T06:30:41;96458.66;;;13.79;69.96
66479;BME280;53294;47.912;13.526;2022-10-16T06:33:10;96456.41;;;13.72;71.04
66479;BME280;53294;47.912;13.526;2022-10-16T06:35:37;96465.03;;;13.83;70.56
66479;BME280;53294;47.912;13.526;2022-10-16T06:38:04;96458.03;;;13.82;70.98
66479;BME280;53294;47.912;13.526;2022-10-16T06:40:30;96458.50;;;13.75;71.40
66479;BME280;53294;47.912;13.526;2022-10-16T06:42:57;96462.38;;;13.92;71.53
66479;BME280;53294;47.912;13.526;2022-10-16T06:45:24;96462.47;;;14.09;71.35
66479;BME280;53294;47.912;13.526;2022-10-16T06:47:50;96464.06;;;14.10;72.85
66479;BME280;53294;47.912;13.526;2022-10-16T06:50:17;96462.38;;;13.92;74.79
66479;BME280;53294;47.912;13.526;2022-10-16T06:52:43;96462.03;;;13.85;75.50
66479;BME280;53294;47.912;13.526;2022-10-16T06:55:10;96457.34;;;13.99;75.02
66479;BME280;53294;47.912;13.526;2022-10-16T06:57:37;96462.88;;;13.94;75.40
66479;BME280;53294;47.912;13.526;2022-10-16T07:00:04;96461.75;;;14.26;74.22
66479;BME280;53294;47.912;13.526;2022-10-16T07:02:31;96458.09;;;14.31;73.99
66479;BME280;53294;47.912;13.526;2022-10-16T07:04:58;96455.63;;;14.52;73.57
66479;BME280;53294;47.912;13.526;2022-10-16T07:07:24;96459.72;;;14.81;72.62
66479;BME280;53294;47.912;13.526;2022-10-16T07:09:52;96453.03;;;14.87;72.40
66479;BME280;53294;47.912;13.526;2022-10-16T07:12:19;96464.03;;;15.08;71.82
66479;BME280;53294;47.912;13.526;2022-10-16T07:14:46;96448.28;;;15.19;71.62
66479;BME280;53294;47.912;13.526;2022-10-16T07:17:12;96446.84;;;15.39;71.04
66479;BME280;53294;47.912;13.526;2022-10-16T07:19:39;96452.41;;;15.42;71.06
66479;BME280;53294;47.912;13.526;2022-10-16T07:22:06;96448.72;;;15.65;70.74
66479;BME280;53294;47.912;13.526;2022-10-16T07:24:32;96452.22;;;15.56;71.06
66479;BME280;53294;47.912;13.526;2022-10-16T07:26:59;96448.56;;;15.61;71.82
66479;BME280;53294;47.912;13.526;2022-10-16T07:29:26;96449.19;;;15.93;70.77
66479;BME280;53294;47.912;13.526;2022-10-16T07:31:52;96444.47;;;16.11;70.39
66479;BME280;53294;47.912;13.526;2022-10-16T07:34:19;96450.13;;;16.36;69.27
66479;BME280;53294;47.912;13.526;2022-10-16T07:36:49;96451.31;;;16.56;68.87
66479;BME280;53294;47.912;13.526;2022-10-16T07:39:16;96456.16;;;16.71;69.54
66479;BME280;53294;47.912;13.526;2022-10-16T07:41:43;96456.56;;;16.91;69.43
66479;BME280;53294;47.912;13.526;2022-10-16T07:44:10;96454.50;;;17.09;68.46
66479;BME280;53294;47.912;13.526;2022-10-16T07:46:37;96453.00;;;17.74;67.12
66479;BME280;53294;47.912;13.526;2022-10-16T07:49:04;96458.00;;;17.85;66.16
66479;BME280;53294;47.912;13.526;2022-10-16T07:51:30;96451.28;;;18.03;66.72
66479;BME280;53294;47.912;13.526;2022-10-16T07:53:57;96453.78;;;17.96;66.29
66479;BME280;53294;47.912;13.526;2022-10-16T07:56:24;96456.31;;;18.26;65.84
66479;BME280;53294;47.912;13.526;2022-10-16T07:58:51;96458.78;;;18.31;65.11
66479;BME280;53294;47.912;13.526;2022-10-16T08:01:18;96461.06;;;18.29;65.13
66479;BME280;53294;47.912;13.526;2022-10-16T08:03:47;96454.47;;;18.30;65.05
66479;BME280;53294;47.912;13.526;2022-10-16T08:06:15;96454.81;;;18.28;65.30
66479;BME280;53294;47.912;13.526;2022-10-16T08:08:43;96462.16;;;18.16;66.08
66479;BME280;53294;47.912;13.526;2022-10-16T08:11:10;96455.84;;;18.36;65.63
66479;BME280;53294;47.912;13.526;2022-10-16T08:13:37;96457.88;;;18.52;65.40
66479;BME280;53294;47.912;13.526;2022-10-16T08:16:04;96459.47;;;18.77;65.02
66479;BME280;53294;47.912;13.526;2022-10-16T08:18:35;96458.97;;;19.12;64.74
66479;BME280;53294;47.912;13.526;2022-10-16T08:21:03;96458.81;;;19.33;64.03
66479;BME280;53294;47.912;13.526;2022-10-16T08:23:31;96460.28;;;19.31;63.29
66479;BME280;53294;47.912;13.526;2022-10-16T08:26:05;96464.38;;;19.37;61.70
66479;BME280;53294;47.912;13.526;2022-10-16T08:28:32;96464.03;;;19.38;63.29
66479;BME280;53294;47.912;13.526;2022-10-16T08:31:10;96464.88;;;19.55;60.88
66479;BME280;53294;47.912;13.526;2022-10-16T08:33:38;96461.41;;;19.42;61.76
66479;BME280;53294;47.912;13.526;2022-10-16T08:36:06;96465.75;;;19.31;63.49
66479;BME280;53294;47.912;13.526;2022-10-16T08:38:33;96460.91;;;19.52;62.81
66479;BME280;53294;47.912;13.526;2022-10-16T08:44:27;96468.31;;;18.99;61.75
66479;BME280;53294;47.912;13.526;2022-10-16T08:50:02;96474.91;;;19.79;60.75
66479;BME280;53294;47.912;13.526;2022-10-16T08:52:34;96478.50;;;20.27;60.96
66479;BME280;53294;47.912;13.526;2022-10-16T08:55:03;96481.66;;;20.30;59.54
66479;BME280;53294;47.912;13.526;2022-10-16T08:57:30;96478.53;;;19.99;58.31
66479;BME280;53294;47.912;13.526;2022-10-16T09:00:00;96482.50;;;20.02;59.71
66479;BME280;53294;47.912;13.526;2022-10-16T09:02:40;96485.91;;;19.83;58.69
66479;BME280;53294;47.912;13.526;2022-10-16T09:16:36;96479.22;;;20.88;56.74
66479;BME280;53294;47.912;13.526;2022-10-16T09:19:26;96474.34;;;20.82;56.39
66479;BME280;53294;47.912;13.526;2022-10-16T09:21:59;96483.84;;;21.04;55.68
66479;BME280;53294;47.912;13.526;2022-10-16T09:24:29;96479.59;;;21.06;55.53
66479;BME280;53294;47.912;13.526;2022-10-16T09:26:56;96478.81;;;21.25;55.66
66479;BME280;53294;47.912;13.526;2022-10-16T09:29:22;96482.22;;;21.97;53.60
66479;BME280;53294;47.912;13.526;2022-10-16T09:31:53;96485.00;;;22.20;53.45
66479;BME280;53294;47.912;13.526;2022-10-16T09:34:34;96483.06;;;22.67;53.02
66479;BME280;53294;47.912;13.526;2022-10-16T09:37:09;96478.38;;;23.17;51.66
66479;BME280;53294;47.912;13.526;2022-10-16T09:39:46;96483.81;;;23.44;49.37
66479;BME280;53294;47.912;13.526;2022-10-16T09:42:23;96477.19;;;23.79;47.69
66479;BME280;53294;47.912;13.526;2022-10-16T09:44:51;96486.88;;;24.03;48.91
66479;BME280;53294;47.912;13.526;2022-10-16T09:47:23;96487.84;;;24.25;48.98
66479;BME280;53294;47.912;13.526;2022-10-16T09:50:23;96498.41;;;24.61;47.29
66479;BME280;53294;47.912;13.526;2022-10-16T09:52:51;96490.63;;;24.70;49.38
66479;BME280;53294;47.912;13.526;2022-10-16T09:55:18;96490.03;;;24.95;48.35
66479;BME280;53294;47.912;13.526;2022-10-16T09:57:54;96489.66;;;25.00;47.62
66479;BME280;53294;47.912;13.526;2022-10-16T10:00:22;96488.78;;;25.44;46.56
66479;BME280;53294;47.912;13.526;2022-10-16T10:02:49;96491.22;;;25.63;46.83
66479;BME280;53294;47.912;13.526;2022-10-16T10:07:45;96489.84;;;26.13;46.52
66479;BME280;53294;47.912;13.526;2022-10-16T10:10:22;96495.75;;;26.37;44.95
66479;BME280;53294;47.912;13.526;2022-10-16T10:12:49;96483.59;;;26.30;46.52
66479;BME280;53294;47.912;13.526;2022-10-16T10:15:16;96496.22;;;26.78;45.98
66479;BME280;53294;47.912;13.526;2022-10-16T10:17:51;96493.84;;;26.87;45.82
66479;BME280;53294;47.912;13.526;2022-10-16T10:23:13;96492.22;;;27.22;46.60
66479;BME280;53294;47.912;13.526;2022-10-16T10:36:38;96484.34;;;26.17;45.66
66479;BME280;53294;47.912;13.526;2022-10-16T10:39:23;96481.63;;;26.31;45.34
66479;BME280;53294;47.912;13.526;2022-10-16T10:44:57;96476.50;;;26.37;43.07
66479;BME280;53294;47.912;13.526;2022-10-16T10:50:41;96471.00;;;26.15;43.91
66479;BME280;53294;47.912;13.526;2022-10-16T10:56:56;96478.81;;;26.13;44.08
66479;BME280;53294;47.912;13.526;2022-10-16T11:01:50;96483.22;;;26.57;45.21
66479;BME280;53294;47.912;13.526;2022-10-16T11:04:54;96487.56;;;27.05;42.56
66479;BME280;53294;47.912;13.526;2022-10-16T11:07:29;96482.31;;;27.61;43.70
66479;BME280;53294;47.912;13.526;2022-10-16T11:10:12;96483.50;;;27.49;42.89
66479;BME280;53294;47.912;13.526;2022-10-16T11:12:47;96484.34;;;27.43;42.00
66479;BME280;53294;47.912;13.526;2022-10-16T11:15:21;96485.97;;;27.04;41.52
66479;BME280;53294;47.912;13.526;2022-10-16T11:18:03;96481.97;;;27.30;41.62
66479;BME280;53294;47.912;13.526;2022-10-16T11:20:41;96489.94;;;26.78;41.75
66479;BME280;53294;47.912;13.526;2022-10-16T11:23:15;96497.78;;;26.83;42.97
66479;BME280;53294;47.912;13.526;2022-10-16T11:25:43;96489.03;;;25.98;43.99
66479;BME280;53294;47.912;13.526;2022-10-16T11:28:15;96485.84;;;25.92;43.56
66479;BME280;53294;47.912;13.526;2022-10-16T11:31:00;96479.88;;;25.69;43.56
66479;BME280;53294;47.912;13.526;2022-10-16T11:38:58;96482.03;;;27.01;43.69
66479;BME280;53294;47.912;13.526;2022-10-16T11:41:32;96476.41;;;27.48;41.38
66479;BME280;53294;47.912;13.526;2022-10-16T11:50:41;96469.66;;;27.71;41.84
66479;BME280;53294;47.912;13.526;2022-10-16T11:55:51;96459.03;;;29.65;39.03
66479;BME280;53294;47.912;13.526;2022-10-16T12:03:26;96462.72;;;28.71;41.06
66479;BME280;53294;47.912;13.526;2022-10-16T12:06:02;96461.06;;;28.28;42.91
66479;BME280;53294;47.912;13.526;2022-10-16T12:08:35;96463.53;;;28.16;42.07
66479;BME280;53294;47.912;13.526;2022-10-16T12:11:32;96453.63;;;28.22;42.87
66479;BME280;53294;47.912;13.526;2022-10-16T12:16:57;96452.69;;;28.39;42.17
66479;BME280;53294;47.912;13.526;2022-10-16T12:19:30;96454.75;;;28.80;40.72
66479;BME280;53294;47.912;13.526;2022-10-16T12:21:59;96448.06;;;29.16;40.14
66479;BME280;53294;47.912;13.526;2022-10-16T12:24:39;96451.34;;;29.07;39.12
66479;BME280;53294;47.912;13.526;2022-10-16T12:27:27;96455.63;;;28.18;39.69
66479;BME280;53294;47.912;13.526;2022-10-16T12:30:00;96454.41;;;28.22;40.46
66479;BME280;53294;47.912;13.526;2022-10-16T12:32:34;96459.81;;;27.66;42.01
66479;BME280;53294;47.912;13.526;2022-10-16T12:35:26;96458.22;;;27.65;41.31
66479;BME280;53294;47.912;13.526;2022-10-16T12:37:54;96463.22;;;27.92;41.44
66479;BME280;53294;47.912;13.526;2022-10-16T12:40:30;96452.41;;;28.23;41.33
66479;BME280;53294;47.912;13.526;2022-10-16T12:42:57;96455.25;;;28.68;40.95
66479;BME280;53294;47.912;13.526;2022-10-16T12:45:30;96454.22;;;28.96;41.01
66479;BME280;53294;47.912;13.526;2022-10-16T12:48:02;96449.09;;;29.98;39.54
66479;BME280;53294;47.912;13.526;2022-10-16T12:50:33;96441.66;;;30.22;39.27
66479;BME280;53294;47.912;13.526;2022-10-16T12:53:01;96446.34;;;29.98;38.71
66479;BME280;53294;47.912;13.526;2022-10-16T12:55:35;96450.84;;;29.20;39.86
66479;BME280;53294;47.912;13.526;2022-10-16T12:58:34;96449.03;;;29.40;38.36
66479;BME280;53294;47.912;13.526;2022-10-16T13:04:06;96449.56;;;30.20;39.84
66479;BME280;53294;47.912;13.526;2022-10-16T13:12:38;96449.25;;;29.87;38.47
66479;BME280;53294;47.912;13.526;2022-10-16T13:20:33;96459.25;;;29.78;37.99
66479;BME280;53294;47.912;13.526;2022-10-16T13:23:14;96459.22;;;29.47;38.38
66479;BME280;53294;47.912;13.526;2022-10-16T13:28:10;96459.78;;;30.78;37.36
66479;BME280;53294;47.912;13.526;2022-10-16T13:30:41;96459.31;;;31.07;36.00
66479;BME280;53294;47.912;13.526;2022-10-16T13:33:35;96459.91;;;30.71;36.17
66479;BME280;53294;47.912;13.526;2022-10-16T13:36:04;96459.47;;;30.96;36.26
66479;BME280;53294;47.912;13.526;2022-10-16T13:38:33;96473.50;;;31.09;36.09
66479;BME280;53294;47.912;13.526;2022-10-16T13:41:17;96463.16;;;31.13;36.55
66479;BME280;53294;47.912;13.526;2022-10-16T13:43:54;96472.63;;;31.16;35.88
66479;BME280;53294;47.912;13.526;2022-10-16T13:46:25;96467.13;;;31.56;35.50
66479;BME280;53294;47.912;13.526;2022-10-16T13:51:24;96471.00;;;31.98;35.02
66479;BME280;53294;47.912;13.526;2022-10-16T13:53:51;96467.84;;;32.16;34.39
66479;BME280;53294;47.912;13.526;2022-10-16T13:56:20;96474.81;;;32.04;35.22
66479;BME280;53294;47.912;13.526;2022-10-16T13:58:59;96466.00;;;31.90;34.20
66479;BME280;53294;47.912;13.526;2022-10-16T14:01:35;96470.69;;;31.93;34.38
66479;BME280;53294;47.912;13.526;2022-10-16T14:04:11;96474.28;;;31.53;34.60
66479;BME280;53294;47.912;13.526;2022-10-16T14:06:44;96480.75;;;31.03;35.84
66479;BME280;53294;47.912;13.526;2022-10-16T14:11:59;96483.16;;;30.77;36.31
66479;BME280;53294;47.912;13.526;2022-10-16T14:14:32;96486.03;;;30.97;37.01
66479;BME280;53294;47.912;13.526;2022-10-16T14:17:02;96481.22;;;31.21;36.13
66479;BME280;53294;47.912;13.526;2022-10-16T14:19:30;96482.47;;;31.40;36.68
66479;BME280;53294;47.912;13.526;2022-10-16T14:22:39;96484.53;;;31.96;35.80
66479;BME280;53294;47.912;13.526;2022-10-16T14:28:00;96489.69;;;31.58;35.90
66479;BME280;53294;47.912;13.526;2022-10-16T14:30:35;96493.66;;;31.57;36.46
66479;BME280;53294;47.912;13.526;2022-10-16T14:33:21;96483.81;;;31.52;36.62
66479;BME280;53294;47.912;13.526;2022-10-16T14:38:28;96485.84;;;31.72;36.35
66479;BME280;53294;47.912;13.526;2022-10-16T14:40:57;96487.09;;;31.47;37.09
66479;BME280;53294;47.912;13.526;2022-10-16T14:43:35;96490.38;;;31.42;37.31
66479;BME280;53294;47.912;13.526;2022-10-16T14:46:12;96484.47;;;31.60;37.87
66479;BME280;53294;47.912;13.526;2022-10-16T14:48:41;96488.59;;;31.92;36.28
66479;BME280;53294;47.912;13.526;2022-10-16T14:51:13;96493.66;;;31.13;37.61
66479;BME280;53294;47.912;13.526;2022-10-16T14:53:41;96490.75;;;31.20;38.68
66479;BME280;53294;47.912;13.526;2022-10-16T14:56:09;96489.81;;;31.71;38.23
66479;BME280;53294;47.912;13.526;2022-10-16T14:58:40;96483.97;;;31.85;37.46
66479;BME280;53294;47.912;13.526;2022-10-16T15:01:09;96491.47;;;32.04;37.66